sensor_id;sensor_type;location;lat;lon;timestamp;temperature;humidity
81867;DHT22;71318;-36.550;-64.300;2024-01-30T02:05:15;27.10;56.30
81867;DHT22;71318;-36.550;-64.300;2024-01-30T02:07:42;27.00;56.50
81867;DHT22;71318;-36.550;-64.300;2024-01-30T02:10:09;26.90;56.60
81867;DHT22;71318;-36.550;-64.300;2024-01-30T04:32:27;25.80;64.60
81867;DHT22;71318;-36.550;-64.300;2024-01-30T04:34:54;25.80;64.60
81867;DHT22;71318;-36.550;-64.300;2024-01-30T04:37:20;25.80;64.80
81867;DHT22;71318;-36.550;-64.300;2024-01-30T05:28:02;24.60;72.30
81867;DHT22;71318;-36.550;-64.300;2024-01-30T05:35:42;24.50;73.20
81867;DHT22;71318;-36.550;-64.300;2024-01-30T05:38:10;24.40;73.50
81867;DHT22;71318;-36.550;-64.300;2024-01-30T05:42:57;24.40;73.80
81867;DHT22;71318;-36.550;-64.300;2024-01-30T05:47:30;24.20;74.50
81867;DHT22;71318;-36.550;-64.300;2024-01-30T05:49:57;24.20;75.00
81867;DHT22;71318;-36.550;-64.300;2024-01-30T05:52:23;24.10;75.40
81867;DHT22;71318;-36.550;-64.300;2024-01-30T05:54:49;24.00;75.70
81867;DHT22;71318;-36.550;-64.300;2024-01-30T05:57:16;23.90;76.40
81867;DHT22;71318;-36.550;-64.300;2024-01-30T05:59:44;23.80;76.70
81867;DHT22;71318;-36.550;-64.300;2024-01-30T06:02:11;23.70;77.20
81867;DHT22;71318;-36.550;-64.300;2024-01-30T06:04:37;23.50;79.10
81867;DHT22;71318;-36.550;-64.300;2024-01-30T06:07:03;23.30;79.90
81867;DHT22;71318;-36.550;-64.300;2024-01-30T06:09:32;22.90;81.40
81867;DHT22;71318;-36.550;-64.300;2024-01-30T06:11:58;22.70;82.50
81867;DHT22;71318;-36.550;-64.300;2024-01-30T06:14:24;22.50;83.70
81867;DHT22;71318;-36.550;-64.300;2024-01-30T06:16:51;22.40;84.80
81867;DHT22;71318;-36.550;-64.300;2024-01-30T06:19:17;22.50;85.20
81867;DHT22;71318;-36.550;-64.300;2024-01-30T06:21:44;22.60;84.90
81867;DHT22;71318;-36.550;-64.300;2024-01-30T08:23:49;20.10;99.90
81867;DHT22;71318;-36.550;-64.300;2024-01-30T08:26:16;20.00;99.90
81867;DHT22;71318;-36.550;-64.300;2024-01-30T08:28:42;20.00;99.90
81867;DHT22;71318;-36.550;-64.300;2024-01-30T08:31:10;20.00;99.90
81867;DHT22;71318;-36.550;-64.300;2024-01-30T08:33:37;20.10;99.90
81867;DHT22;71318;-36.550;-64.300;2024-01-30T08:36:04;20.10;99.90
81867;DHT22;71318;-36.550;-64.300;2024-01-30T08:38:30;20.10;99.90
81867;DHT22;71318;-36.550;-64.300;2024-01-30T08:40:57;20.10;99.90
81867;DHT22;71318;-36.550;-64.300;2024-01-30T08:43:23;20.10;99.90
81867;DHT22;71318;-36.550;-64.300;2024-01-30T08:45:50;20.10;99.90
81867;DHT22;71318;-36.550;-64.300;2024-01-30T08:48:16;20.00;99.90
81867;DHT22;71318;-36.550;-64.300;2024-01-30T08:50:43;20.00;99.90
81867;DHT22;71318;-36.550;-64.300;2024-01-30T08:53:09;20.00;99.90
81867;DHT22;71318;-36.550;-64.300;2024-01-30T08:55:36;20.00;99.90
81867;DHT22;71318;-36.550;-64.300;2024-01-30T10:24:07;20.10;99.90
81867;DHT22;71318;-36.550;-64.300;2024-01-30T10:26:33;20.20;99.90
81867;DHT22;71318;-36.550;-64.300;2024-01-30T10:29:00;20.40;99.90
81867;DHT22;71318;-36.550;-64.300;2024-01-30T10:31:26;20.80;99.90
81867;DHT22;71318;-36.550;-64.300;2024-01-30T10:33:52;21.10;99.90
81867;DHT22;71318;-36.550;-64.300;2024-01-30T10:36:19;21.30;99.90
81867;DHT22;71318;-36.550;-64.300;2024-01-30T10:38:47;21.40;99.90
81867;DHT22;71318;-36.550;-64.300;2024-01-30T10:41:16;21.70;99.90
81867;DHT22;71318;-36.550;-64.300;2024-01-30T10:43:47;22.00;98.10
81867;DHT22;71318;-36.550;-64.300;2024-01-30T10:46:19;22.40;95.80
81867;DHT22;71318;-36.550;-64.300;2024-01-30T10:48:55;22.70;93.70
81867;DHT22;71318;-36.550;-64.300;2024-01-30T10:51:24;23.00;92.40
81867;DHT22;71318;-36.550;-64.300;2024-01-30T10:53:52;23.20;90.90
81867;DHT22;71318;-36.550;-64.300;2024-01-30T10:56:23;23.50;90.10
81867;DHT22;71318;-36.550;-64.300;2024-01-30T10:58:53;23.80;86.30
81867;DHT22;71318;-36.550;-64.300;2024-01-30T11:01:20;24.10;84.90
81867;DHT22;71318;-36.550;-64.300;2024-01-30T11:03:49;24.40;83.70
81867;DHT22;71318;-36.550;-64.300;2024-01-30T11:06:16;24.70;82.00
81867;DHT22;71318;-36.550;-64.300;2024-01-30T11:08:46;24.90;80.60
81867;DHT22;71318;-36.550;-64.300;2024-01-30T23:39:03;28.40;50.40
81867;DHT22;71318;-36.550;-64.300;2024-01-30T23:41:31;28.30;50.40
81867;DHT22;71318;-36.550;-64.300;2024-01-30T23:43:57;28.20;50.60
81867;DHT22;71318;-36.550;-64.300;2024-01-30T23:46:24;28.20;51.00
